Time;durP1;ratioP1;P1;durP2;ratioP2;P2;SDS_P1;SDS_P2;PMS_P1;PMS_P2;Temp;Humidity;BMP_temperature;BMP_pressure;BME280_temperature;BME280_humidity;BME280_pressure;Samples;Min_cycle;Max_cycle;Signal;HPM_P1;HPM_P2
2022/06/03 00:01:51;;;;;;;;;;;13.80;99.90;;;;;;5055670;28;20138;-73
2022/06/03 00:04:35;;;;;;;;;;;13.80;99.90;;;;;;5059994;28;20595;-73
2022/06/03 00:07:15;;;;;;;;;;;13.80;99.90;;;;;;5063494;28;19928;-73
2022/06/03 00:09:50;;;;;;;;;;;13.80;99.90;;;;;;5083561;28;19929;-73
2022/06/03 00:12:23;;;;;;;;;;;13.70;99.90;;;;;;5070167;28;19928;-73
2022/06/03 00:15:08;;;;;;;;;;;13.70;99.90;;;;;;5078954;28;20331;-73
2022/06/03 00:17:55;;;;;;;;;;;13.70;99.90;;;;;;5085187;28;19924;-73
2022/06/03 00:20:27;;;;;;;;;;;13.70;99.90;;;;;;5083583;28;19944;-73
2022/06/03 00:23:05;;;;;;;;;;;13.60;99.90;;;;;;5067998;28;20318;-73
2022/06/03 00:25:38;;;;;;;;;;;13.60;99.90;;;;;;5075833;28;20292;-72
2022/06/03 00:28:16;;;;;;;;;;;13.60;99.90;;;;;;5058431;28;19951;-72
2022/06/03 00:30:53;;;;;;;;;;;13.60;99.90;;;;;;5056564;28;19924;-72
2022/06/03 00:33:20;;;;;;;;;;;13.60;99.90;;;;;;5078007;28;19924;-72
2022/06/03 00:36:10;;;;;;;;;;;13.60;99.90;;;;;;5091037;28;19950;-73
2022/06/03 00:38:48;;;;;;;;;;;13.60;99.90;;;;;;5079392;28;19931;-72
2022/06/03 00:41:25;;;;;;;;;;;13.60;99.90;;;;;;5057876;28;19960;-72
2022/06/03 00:44:03;;;;;;;;;;;13.50;99.90;;;;;;5082017;28;19928;-72
2022/06/03 00:46:53;;;;;;;;;;;13.50;99.90;;;;;;5057860;28;19925;-72
2022/06/03 00:49:34;;;;;;;;;;;13.40;99.90;;;;;;5065104;28;19930;-72
2022/06/03 00:52:06;;;;;;;;;;;13.30;99.90;;;;;;5074466;28;19935;-72
2022/06/03 00:54:51;;;;;;;;;;;13.30;99.90;;;;;;5073335;28;19924;-72
2022/06/03 00:57:34;;;;;;;;;;;13.30;99.90;;;;;;5068978;28;19924;-72
2022/06/03 01:00:19;;;;;;;;;;;13.20;99.90;;;;;;5078450;28;19930;-73
2022/06/03 01:02:51;;;;;;;;;;;13.20;99.90;;;;;;5089322;28;19932;-72
2022/06/03 01:05:29;;;;;;;;;;;13.20;99.90;;;;;;5105118;28;19924;-72
2022/06/03 01:08:05;;;;;;;;;;;13.20;99.90;;;;;;5061946;28;19928;-72
2022/06/03 01:10:56;;;;;;;;;;;13.10;99.90;;;;;;5073248;28;19947;-72
2022/06/03 01:13:22;;;;;;;;;;;13.20;99.90;;;;;;5071369;28;20294;-72
2022/06/03 01:15:59;;;;;;;;;;;13.20;99.90;;;;;;5091318;28;20385;-73
2022/06/03 01:18:56;;;;;;;;;;;13.10;99.90;;;;;;5066044;28;19924;-72
2022/06/03 01:21:31;;;;;;;;;;;13.20;99.90;;;;;;5073641;28;19924;-72
2022/06/03 01:24:06;;;;;;;;;;;13.10;99.90;;;;;;5071076;28;20673;-72
2022/06/03 01:27:01;;;;;;;;;;;13.10;99.90;;;;;;5058616;28;19939;-72
2022/06/03 01:29:47;;;;;;;;;;;13.10;99.90;;;;;;5043174;28;20388;-72
2022/06/03 01:32:31;;;;;;;;;;;13.00;99.90;;;;;;5058209;28;19931;-72
2022/06/03 01:35:15;;;;;;;;;;;13.00;99.90;;;;;;5100017;28;20388;-72
2022/06/03 01:38:01;;;;;;;;;;;12.90;99.90;;;;;;5075907;28;19924;-72
2022/06/03 01:40:39;;;;;;;;;;;13.00;99.90;;;;;;5053819;28;19924;-72
2022/06/03 01:43:14;;;;;;;;;;;12.90;99.90;;;;;;5052290;28;19935;-72
2022/06/03 01:45:51;;;;;;;;;;;12.90;99.90;;;;;;5077448;28;19970;-72
2022/06/03 01:48:30;;;;;;;;;;;12.90;99.90;;;;;;5084908;28;19938;-72
2022/06/03 01:51:11;;;;;;;;;;;12.80;99.90;;;;;;5076646;28;20019;-72
2022/06/03 01:53:48;;;;;;;;;;;12.80;99.90;;;;;;5079483;28;19929;-72
2022/06/03 01:56:32;;;;;;;;;;;12.80;99.90;;;;;;5075191;28;19931;-72
2022/06/03 01:59:06;;;;;;;;;;;12.80;99.90;;;;;;5080658;28;19924;-72
2022/06/03 02:01:57;;;;;;;;;;;12.80;99.90;;;;;;5103005;28;19932;-72
2022/06/03 02:04:43;;;;;;;;;;;12.80;99.90;;;;;;5084364;28;20300;-72
2022/06/03 02:07:26;;;;;;;;;;;12.80;99.90;;;;;;5090999;28;20297;-72
2022/06/03 02:10:01;;;;;;;;;;;12.80;99.90;;;;;;5071582;28;20407;-72
2022/06/03 02:12:45;;;;;;;;;;;12.80;99.90;;;;;;5084769;28;19924;-72
2022/06/03 02:15:12;;;;;;;;;;;12.80;99.90;;;;;;5064457;28;20300;-73
2022/06/03 02:18:07;;;;;;;;;;;12.70;99.90;;;;;;5067780;28;19925;-73
2022/06/03 02:20:56;;;;;;;;;;;12.60;99.90;;;;;;5071934;28;20298;-72
2022/06/03 02:23:34;;;;;;;;;;;12.60;99.90;;;;;;5075122;28;19928;-72
2022/06/03 02:26:20;;;;;;;;;;;12.60;99.90;;;;;;5060655;28;19928;-72
2022/06/03 02:28:50;;;;;;;;;;;12.60;99.90;;;;;;5076577;28;20015;-72
2022/06/03 02:31:30;;;;;;;;;;;12.60;99.90;;;;;;5076831;28;19947;-72
2022/06/03 02:33:56;;;;;;;;;;;12.60;99.90;;;;;;5064365;28;19931;-72
2022/06/03 02:36:37;;;;;;;;;;;12.60;99.90;;;;;;5086347;28;20332;-72
2022/06/03 02:39:41;;;;;;;;;;;12.60;99.90;;;;;;5072148;28;19928;-72
2022/06/03 02:42:15;;;;;;;;;;;12.60;99.90;;;;;;5061898;28;19924;-72
2022/06/03 02:45:06;;;;;;;;;;;12.50;99.90;;;;;;5062289;28;19932;-72
2022/06/03 02:47:47;;;;;;;;;;;12.60;99.90;;;;;;5073542;28;19928;-72
2022/06/03 02:50:27;;;;;;;;;;;12.60;99.90;;;;;;5047225;28;20384;-72
2022/06/03 02:52:58;;;;;;;;;;;12.60;99.90;;;;;;5089119;28;19935;-72
2022/06/03 02:55:30;;;;;;;;;;;12.60;99.90;;;;;;5080156;28;19928;-72
2022/06/03 02:58:20;;;;;;;;;;;12.60;99.90;;;;;;5089373;28;19930;-72
2022/06/03 03:01:04;;;;;;;;;;;12.60;99.90;;;;;;5060634;28;19928;-72
2022/06/03 03:04:08;;;;;;;;;;;12.60;99.90;;;;;;5092189;28;19936;-72
2022/06/03 03:06:46;;;;;;;;;;;12.60;99.90;;;;;;5036377;28;19925;-72
2022/06/03 03:09:36;;;;;;;;;;;12.60;99.90;;;;;;5067654;28;19924;-72
2022/06/03 03:12:16;;;;;;;;;;;12.70;99.90;;;;;;5059922;28;19929;-72
2022/06/03 03:15:04;;;;;;;;;;;12.70;99.90;;;;;;5096532;28;19931;-72
2022/06/03 03:17:56;;;;;;;;;;;12.60;99.90;;;;;;5065611;28;19932;-73
2022/06/03 03:20:33;;;;;;;;;;;12.60;99.90;;;;;;5041835;28;19935;-72
2022/06/03 03:23:05;;;;;;;;;;;12.60;99.90;;;;;;5091692;28;20392;-72
2022/06/03 03:25:39;;;;;;;;;;;12.60;99.90;;;;;;5059677;28;19924;-72
2022/06/03 03:28:40;;;;;;;;;;;12.60;99.90;;;;;;5061805;28;20010;-72
2022/06/03 03:31:12;;;;;;;;;;;12.60;99.90;;;;;;5020497;28;20597;-73
2022/06/03 03:33:56;;;;;;;;;;;12.60;99.90;;;;;;5074114;28;19925;-72
2022/06/03 03:36:37;;;;;;;;;;;12.60;99.90;;;;;;5061831;28;20295;-72
2022/06/03 03:39:11;;;;;;;;;;;12.60;99.90;;;;;;5056750;28;20368;-72
2022/06/03 03:42:01;;;;;;;;;;;12.60;99.90;;;;;;5081519;28;19975;-72
2022/06/03 03:44:42;;;;;;;;;;;12.60;99.90;;;;;;5073137;28;20388;-73
2022/06/03 03:47:32;;;;;;;;;;;12.60;99.90;;;;;;5080110;28;20566;-72
2022/06/03 03:50:10;;;;;;;;;;;12.60;99.90;;;;;;5087702;28;19930;-72
2022/06/03 03:52:52;;;;;;;;;;;12.60;99.90;;;;;;5064873;28;19934;-72
2022/06/03 03:55:41;;;;;;;;;;;12.60;99.90;;;;;;5073727;28;19930;-72
2022/06/03 03:58:31;;;;;;;;;;;12.60;99.90;;;;;;5078863;28;19929;-72
2022/06/03 04:01:15;;;;;;;;;;;12.60;99.90;;;;;;5074138;28;19931;-73
2022/06/03 04:04:13;;;;;;;;;;;12.50;99.90;;;;;;5082342;28;19924;-73
2022/06/03 04:06:48;;;;;;;;;;;12.50;99.90;;;;;;5081829;28;19924;-72
2022/06/03 04:09:23;;;;;;;;;;;12.50;99.90;;;;;;5082167;28;19928;-73
2022/06/03 04:11:57;;;;;;;;;;;12.60;99.90;;;;;;5085602;28;20285;-73
2022/06/03 04:15:04;;;;;;;;;;;12.60;99.90;;;;;;5084732;28;19935;-73
2022/06/03 04:17:59;;;;;;;;;;;12.60;99.90;;;;;;5016548;28;19932;-73
2022/06/03 04:20:50;;;;;;;;;;;12.60;99.90;;;;;;5056133;28;20043;-73
2022/06/03 04:23:38;;;;;;;;;;;12.50;99.90;;;;;;5074562;28;19928;-73
2022/06/03 04:26:28;;;;;;;;;;;12.50;99.90;;;;;;5061645;28;19974;-73
2022/06/03 04:29:39;;;;;;;;;;;12.50;99.90;;;;;;5066648;28;19928;-73
2022/06/03 04:32:22;;;;;;;;;;;12.50;99.90;;;;;;5085485;28;19932;-73
2022/06/03 04:34:55;;;;;;;;;;;12.60;99.90;;;;;;5072525;28;20367;-73
2022/06/03 04:37:43;;;;;;;;;;;12.50;99.90;;;;;;5075968;28;19932;-73
2022/06/03 04:40:29;;;;;;;;;;;12.50;99.90;;;;;;5107292;28;19924;-73
2022/06/03 04:43:00;;;;;;;;;;;12.50;99.90;;;;;;5090736;28;19938;-74
2022/06/03 04:45:41;;;;;;;;;;;12.60;99.90;;;;;;5055628;28;20410;-74
2022/06/03 04:48:16;;;;;;;;;;;12.60;99.90;;;;;;5089370;28;19928;-74
2022/06/03 04:50:42;;;;;;;;;;;12.60;99.90;;;;;;5096979;28;20414;-74
2022/06/03 04:53:34;;;;;;;;;;;12.70;99.90;;;;;;5078535;28;19923;-73
2022/06/03 04:56:09;;;;;;;;;;;12.70;99.90;;;;;;5070478;28;19924;-73
2022/06/03 04:58:43;;;;;;;;;;;12.80;99.90;;;;;;5059641;28;20396;-73
2022/06/03 05:01:18;;;;;;;;;;;12.80;99.90;;;;;;5074092;28;19954;-73
2022/06/03 05:03:56;;;;;;;;;;;12.90;99.90;;;;;;5095951;28;19924;-73
2022/06/03 05:06:54;;;;;;;;;;;13.00;99.90;;;;;;5079655;28;19931;-74
2022/06/03 05:09:29;;;;;;;;;;;13.00;99.90;;;;;;5075432;28;19963;-73
2022/06/03 05:12:01;;;;;;;;;;;13.00;99.90;;;;;;5058381;28;19928;-73
2022/06/03 05:14:48;;;;;;;;;;;13.00;99.90;;;;;;5058005;28;20472;-74
2022/06/03 05:17:32;;;;;;;;;;;13.10;99.90;;;;;;5075226;28;20410;-74
2022/06/03 05:20:04;;;;;;;;;;;13.20;99.90;;;;;;5075296;28;20008;-73
2022/06/03 05:22:44;;;;;;;;;;;13.30;99.90;;;;;;5073833;28;20388;-73
2022/06/03 05:25:10;;;;;;;;;;;13.40;99.90;;;;;;5075314;28;19952;-73
2022/06/03 05:28:01;;;;;;;;;;;13.50;99.90;;;;;;5091921;28;19928;-73
2022/06/03 05:30:52;;;;;;;;;;;13.60;99.90;;;;;;5075160;28;19963;-73
2022/06/03 05:33:33;;;;;;;;;;;13.70;99.90;;;;;;5073398;28;20343;-74
2022/06/03 05:36:18;;;;;;;;;;;13.80;99.90;;;;;;5094954;28;19973;-73
2022/06/03 05:38:50;;;;;;;;;;;13.80;99.90;;;;;;5090725;28;19924;-74
2022/06/03 05:44:34;;;;;;;;;;;13.90;99.90;;;;;;5092128;28;19928;-74
2022/06/03 05:47:01;;;;;;;;;;;13.90;99.90;;;;;;5057999;28;19932;-74
2022/06/03 05:49:51;;;;;;;;;;;14.00;99.90;;;;;;5092005;28;19924;-74
2022/06/03 05:52:39;;;;;;;;;;;14.00;99.90;;;;;;5089705;28;19924;-73
2022/06/03 05:55:26;;;;;;;;;;;14.10;99.90;;;;;;5089106;28;19956;-74
2022/06/03 05:58:06;;;;;;;;;;;14.20;99.90;;;;;;5074181;28;19930;-73
2022/06/03 06:00:50;;;;;;;;;;;14.20;99.90;;;;;;5108116;28;19963;-74
2022/06/03 06:03:22;;;;;;;;;;;14.20;99.90;;;;;;5058276;28;19924;-74
2022/06/03 06:06:08;;;;;;;;;;;14.30;99.90;;;;;;5074522;28;19928;-73
2022/06/03 06:08:43;;;;;;;;;;;14.20;99.90;;;;;;5091782;28;20300;-73
2022/06/03 06:11:15;;;;;;;;;;;14.20;99.90;;;;;;5092618;28;19978;-74
2022/06/03 06:14:05;;;;;;;;;;;14.20;99.90;;;;;;5075354;28;19924;-74
2022/06/03 06:16:40;;;;;;;;;;;14.20;99.90;;;;;;5074770;28;20400;-74
2022/06/03 06:19:18;;;;;;;;;;;14.20;99.90;;;;;;5090271;28;19939;-73
2022/06/03 06:21:59;;;;;;;;;;;14.20;99.90;;;;;;5073326;28;19935;-73
2022/06/03 06:24:34;;;;;;;;;;;14.20;99.90;;;;;;5088944;28;19934;-72
2022/06/03 06:27:28;;;;;;;;;;;14.30;99.90;;;;;;5072322;28;20031;-73
2022/06/03 06:30:19;;;;;;;;;;;14.30;99.90;;;;;;5088234;28;19924;-73
2022/06/03 06:32:52;;;;;;;;;;;14.40;99.90;;;;;;5091916;28;19971;-73
2022/06/03 06:35:25;;;;;;;;;;;14.50;99.90;;;;;;5054760;28;20038;-73
2022/06/03 06:38:03;;;;;;;;;;;14.50;99.90;;;;;;5059060;28;20026;-73
2022/06/03 06:40:41;;;;;;;;;;;14.70;99.90;;;;;;5055041;28;19924;-72
2022/06/03 06:43:30;;;;;;;;;;;14.80;99.90;;;;;;5074080;28;19924;-73
2022/06/03 06:46:03;;;;;;;;;;;14.90;99.90;;;;;;5089449;28;19924;-72
2022/06/03 06:48:39;;;;;;;;;;;14.90;99.90;;;;;;5057117;28;20411;-73
2022/06/03 06:51:30;;;;;;;;;;;15.00;99.90;;;;;;5071726;28;19928;-72
2022/06/03 06:54:25;;;;;;;;;;;15.10;99.90;;;;;;5065933;28;19934;-72
2022/06/03 06:56:52;;;;;;;;;;;15.30;99.90;;;;;;5048478;28;20601;-73
2022/06/03 06:59:31;;;;;;;;;;;15.40;99.90;;;;;;5072341;28;19982;-73
2022/06/03 07:02:21;;;;;;;;;;;15.50;99.90;;;;;;5088810;28;19924;-72
2022/06/03 07:04:59;;;;;;;;;;;15.70;99.90;;;;;;5066337;28;19927;-72
2022/06/03 07:07:41;;;;;;;;;;;15.80;99.90;;;;;;5087442;28;20657;-73
2022/06/03 07:10:24;;;;;;;;;;;15.90;99.90;;;;;;5084395;28;19928;-73
2022/06/03 07:12:56;;;;;;;;;;;16.00;99.90;;;;;;5096649;27;19928;-72
2022/06/03 07:15:29;;;;;;;;;;;16.10;99.90;;;;;;5064127;28;20304;-72
2022/06/03 07:20:55;;;;;;;;;;;16.30;99.90;;;;;;5071903;28;19924;-73
2022/06/03 07:23:45;;;;;;;;;;;16.40;99.90;;;;;;5057358;28;19935;-73
2022/06/03 07:26:20;;;;;;;;;;;16.50;99.90;;;;;;5063559;28;19931;-73
2022/06/03 07:28:58;;;;;;;;;;;16.60;99.90;;;;;;5056587;28;20393;-73
2022/06/03 07:31:40;;;;;;;;;;;16.80;99.90;;;;;;5061353;28;19932;-73
2022/06/03 07:34:14;;;;;;;;;;;17.00;99.90;;;;;;5057856;28;19963;-73
2022/06/03 07:36:56;;;;;;;;;;;17.10;99.90;;;;;;5053769;28;19924;-73
2022/06/03 07:39:36;;;;;;;;;;;17.20;99.90;;;;;;5055650;28;19963;-72
2022/06/03 07:42:28;;;;;;;;;;;17.40;99.90;;;;;;5072362;28;20526;-73
2022/06/03 07:45:02;;;;;;;;;;;17.50;99.90;;;;;;5062139;28;20078;-73
2022/06/03 07:47:31;;;;;;;;;;;17.70;99.90;;;;;;5073448;28;19928;-73
2022/06/03 07:50:06;;;;;;;;;;;17.80;99.90;;;;;;5071957;28;19934;-73
2022/06/03 07:52:41;;;;;;;;;;;18.00;99.90;;;;;;5086805;28;19924;-73
2022/06/03 07:55:11;;;;;;;;;;;18.10;99.90;;;;;;5092260;28;19951;-73
2022/06/03 07:57:49;;;;;;;;;;;18.20;99.90;;;;;;5069414;28;19942;-73
2022/06/03 08:00:21;;;;;;;;;;;18.40;99.90;;;;;;5048463;28;19930;-73
2022/06/03 08:02:59;;;;;;;;;;;18.50;99.90;;;;;;5088238;28;20312;-73
2022/06/03 08:05:32;;;;;;;;;;;18.60;99.90;;;;;;5064129;28;19924;-73
2022/06/03 08:11:01;;;;;;;;;;;18.90;99.90;;;;;;5062239;28;19924;-73
2022/06/03 08:13:38;;;;;;;;;;;19.00;99.90;;;;;;5064536;28;19975;-73
2022/06/03 08:16:17;;;;;;;;;;;19.20;99.90;;;;;;5070983;28;19947;-73
2022/06/03 08:18:49;;;;;;;;;;;19.30;99.90;;;;;;5088665;28;19924;-73
2022/06/03 08:21:31;;;;;;;;;;;19.40;99.90;;;;;;5082983;28;19924;-74
2022/06/03 08:24:04;;;;;;;;;;;19.60;99.90;;;;;;5085311;28;19934;-74
2022/06/03 08:26:37;;;;;;;;;;;19.70;99.90;;;;;;5087503;28;19928;-73
2022/06/03 08:29:12;;;;;;;;;;;19.80;99.90;;;;;;5067002;28;19930;-73
2022/06/03 08:31:40;;;;;;;;;;;20.00;99.90;;;;;;5101970;28;20057;-73
2022/06/03 08:34:11;;;;;;;;;;;20.10;99.90;;;;;;5084368;28;19978;-72
2022/06/03 08:36:40;;;;;;;;;;;20.20;99.90;;;;;;5101711;28;20400;-72
2022/06/03 08:39:23;;;;;;;;;;;20.30;99.90;;;;;;5068732;28;19957;-73
2022/06/03 08:41:59;;;;;;;;;;;20.40;99.90;;;;;;5085387;28;19978;-73
2022/06/03 08:44:41;;;;;;;;;;;20.60;99.90;;;;;;5072111;28;20388;-72
2022/06/03 08:47:17;;;;;;;;;;;20.70;99.90;;;;;;5087927;28;19923;-73
2022/06/03 08:50:15;;;;;;;;;;;20.80;99.90;;;;;;5085228;28;20006;-72
2022/06/03 08:52:53;;;;;;;;;;;20.90;99.90;;;;;;5067384;28;19973;-73
2022/06/03 08:55:40;;;;;;;;;;;21.10;99.90;;;;;;5070302;28;20270;-73
2022/06/03 08:58:38;;;;;;;;;;;21.20;99.90;;;;;;5104025;28;19924;-72
2022/06/03 09:01:29;;;;;;;;;;;21.40;99.90;;;;;;5070860;28;19934;-72
2022/06/03 09:04:20;;;;;;;;;;;21.50;99.90;;;;;;5106077;28;20003;-73
2022/06/03 09:07:07;;;;;;;;;;;21.70;99.90;;;;;;5072917;28;20057;-72
2022/06/03 09:09:39;;;;;;;;;;;21.80;99.90;;;;;;5073546;28;19963;-72
2022/06/03 09:12:23;;;;;;;;;;;22.00;99.90;;;;;;5074702;28;20297;-73
2022/06/03 09:15:08;;;;;;;;;;;22.10;99.90;;;;;;5087830;28;19938;-73
2022/06/03 09:17:46;;;;;;;;;;;22.20;99.90;;;;;;5099823;28;19938;-72
2022/06/03 09:20:21;;;;;;;;;;;22.30;99.90;;;;;;5058540;28;19931;-72
2022/06/03 09:22:48;;;;;;;;;;;22.40;99.90;;;;;;5067322;28;19931;-72
2022/06/03 09:25:20;;;;;;;;;;;22.40;99.90;;;;;;5063331;28;19928;-72
2022/06/03 09:27:52;;;;;;;;;;;22.60;99.90;;;;;;5061314;28;19929;-73
2022/06/03 09:30:26;;;;;;;;;;;22.70;99.90;;;;;;5091731;28;19928;-72
2022/06/03 09:33:00;;;;;;;;;;;22.80;99.90;;;;;;5063902;28;19970;-72
2022/06/03 09:35:32;;;;;;;;;;;23.00;99.90;;;;;;5070754;28;19931;-73
2022/06/03 09:38:00;;;;;;;;;;;23.20;99.90;;;;;;5080631;28;19931;-73
2022/06/03 09:40:35;;;;;;;;;;;23.20;99.90;;;;;;5053227;28;20304;-73
2022/06/03 09:43:33;;;;;;;;;;;23.30;99.90;;;;;;5085417;28;19924;-73
2022/06/03 09:45:59;;;;;;;;;;;23.50;99.90;;;;;;5057409;28;19924;-73
2022/06/03 09:48:33;;;;;;;;;;;23.60;99.90;;;;;;5098927;28;19959;-73
2022/06/03 09:51:10;;;;;;;;;;;23.70;99.90;;;;;;5067265;28;20031;-73
2022/06/03 09:53:43;;;;;;;;;;;23.80;99.90;;;;;;5096124;28;20381;-73
2022/06/03 09:56:21;;;;;;;;;;;23.90;99.90;;;;;;5073107;28;19924;-73
2022/06/03 09:58:54;;;;;;;;;;;24.00;99.90;;;;;;5069376;28;19979;-73
2022/06/03 10:01:26;;;;;;;;;;;24.20;99.90;;;;;;5077893;28;19924;-73
2022/06/03 10:04:01;;;;;;;;;;;24.20;99.90;;;;;;5058667;28;19924;-73
2022/06/03 10:06:43;;;;;;;;;;;24.40;99.90;;;;;;5078838;28;20384;-72
2022/06/03 10:15:37;;;;;;;;;;;24.60;99.90;;;;;;5089855;28;19928;-73
2022/06/03 10:17:39;;;;;;;;;;;24.80;99.90;;;;;;5078860;28;19925;-73
2022/06/03 10:20:08;;;;;;;;;;;24.90;99.90;;;;;;5073546;28;19929;-73
2022/06/03 10:22:41;;;;;;;;;;;25.00;99.90;;;;;;5063178;28;19928;-73
2022/06/03 10:25:08;;;;;;;;;;;25.20;99.90;;;;;;5089876;28;19930;-73
2022/06/03 10:27:39;;;;;;;;;;;25.30;99.90;;;;;;5086431;28;19928;-72
2022/06/03 10:30:12;;;;;;;;;;;25.40;99.90;;;;;;5084742;28;19930;-73
2022/06/03 10:32:48;;;;;;;;;;;25.50;99.90;;;;;;5070229;28;19928;-72
2022/06/03 10:35:26;;;;;;;;;;;25.60;99.90;;;;;;5095873;28;20053;-73
2022/06/03 10:38:03;;;;;;;;;;;25.70;99.90;;;;;;5063113;28;19925;-72
2022/06/03 10:40:39;;;;;;;;;;;25.90;99.90;;;;;;5082121;28;19932;-73
2022/06/03 10:43:11;;;;;;;;;;;26.00;99.90;;;;;;5056205;28;19934;-73
2022/06/03 10:45:43;;;;;;;;;;;26.10;99.90;;;;;;5081110;28;19931;-73
2022/06/03 10:48:34;;;;;;;;;;;26.20;99.90;;;;;;5057519;28;20303;-73
2022/06/03 10:51:17;;;;;;;;;;;26.40;99.90;;;;;;5097620;27;19930;-73
2022/06/03 11:02:56;;;;;;;;;;;26.70;99.90;;;;;;5069224;28;19977;-73
2022/06/03 11:05:29;;;;;;;;;;;26.80;99.90;;;;;;5084044;28;19967;-73
2022/06/03 11:07:59;;;;;;;;;;;26.90;99.90;;;;;;5081486;28;20273;-72
2022/06/03 11:10:35;;;;;;;;;;;27.10;99.90;;;;;;5089996;28;19931;-74
2022/06/03 11:13:08;;;;;;;;;;;27.20;99.90;;;;;;5081415;28;20382;-72
2022/06/03 11:15:41;;;;;;;;;;;27.20;99.90;;;;;;5085107;28;20173;-72
2022/06/03 11:18:18;;;;;;;;;;;27.30;99.90;;;;;;5086628;28;19932;-72
2022/06/03 11:20:50;;;;;;;;;;;27.40;99.90;;;;;;5084475;28;20173;-72
2022/06/03 11:23:22;;;;;;;;;;;27.40;99.90;;;;;;5073231;28;20327;-72
2022/06/03 11:25:50;;;;;;;;;;;27.50;99.90;;;;;;5065467;28;20400;-72
2022/06/03 11:28:29;;;;;;;;;;;27.60;99.90;;;;;;5088701;28;19963;-72
2022/06/03 11:31:01;;;;;;;;;;;27.70;99.90;;;;;;5102421;28;19969;-72
2022/06/03 11:33:42;;;;;;;;;;;27.80;99.90;;;;;;5087831;28;19935;-73
2022/06/03 11:36:19;;;;;;;;;;;27.80;99.90;;;;;;5073808;28;19931;-72
2022/06/03 11:38:50;;;;;;;;;;;27.80;99.90;;;;;;5071483;28;19964;-72
2022/06/03 11:41:27;;;;;;;;;;;27.90;99.90;;;;;;5084780;28;19925;-72
2022/06/03 11:43:57;;;;;;;;;;;27.90;99.90;;;;;;5101372;28;19931;-73
2022/06/03 11:46:33;;;;;;;;;;;27.90;99.90;;;;;;5100887;28;19932;-73
2022/06/03 11:49:00;;;;;;;;;;;27.90;99.90;;;;;;5055189;28;19974;-73
2022/06/03 11:51:27;;;;;;;;;;;27.90;99.90;;;;;;5091625;28;19928;-73
2022/06/03 11:53:59;;;;;;;;;;;27.80;99.90;;;;;;5091145;28;19924;-73
2022/06/03 11:56:33;;;;;;;;;;;27.90;99.90;;;;;;5068760;28;19935;-72
2022/06/03 11:59:07;;;;;;;;;;;28.00;99.90;;;;;;5070291;28;20400;-72
2022/06/03 12:01:48;;;;;;;;;;;28.10;99.90;;;;;;5085537;28;19931;-72
2022/06/03 12:04:33;;;;;;;;;;;28.30;99.90;;;;;;5084149;28;19932;-73
2022/06/03 12:07:10;;;;;;;;;;;28.30;99.90;;;;;;5061659;28;19925;-73
2022/06/03 12:09:45;;;;;;;;;;;28.40;99.90;;;;;;5084383;28;20289;-72
2022/06/03 12:15:30;;;;;;;;;;;28.50;99.90;;;;;;5080707;28;19929;-73
2022/06/03 12:18:06;;;;;;;;;;;28.70;99.90;;;;;;5063046;28;20411;-72
2022/06/03 12:20:37;;;;;;;;;;;28.70;99.90;;;;;;5072201;28;19924;-72
2022/06/03 12:23:12;;;;;;;;;;;28.80;99.90;;;;;;5068883;28;19933;-72
2022/06/03 12:25:40;;;;;;;;;;;28.80;99.90;;;;;;5070702;28;19924;-72
2022/06/03 12:28:21;;;;;;;;;;;28.80;99.90;;;;;;5086289;28;19960;-72
2022/06/03 12:30:57;;;;;;;;;;;29.00;99.90;;;;;;5101432;28;20397;-73
2022/06/03 12:33:48;;;;;;;;;;;29.00;99.90;;;;;;5069563;28;19931;-73
2022/06/03 12:36:35;;;;;;;;;;;29.10;99.90;;;;;;5087935;28;20026;-73
2022/06/03 12:39:08;;;;;;;;;;;29.20;99.90;;;;;;5104276;28;19930;-73
2022/06/03 12:41:58;;;;;;;;;;;29.40;99.70;;;;;;5074816;28;20402;-73
2022/06/03 12:44:36;;;;;;;;;;;29.40;99.00;;;;;;5051129;28;19932;-73
2022/06/03 12:47:27;;;;;;;;;;;29.30;99.70;;;;;;5075449;28;20384;-73
2022/06/03 12:49:55;;;;;;;;;;;29.30;99.20;;;;;;5045585;28;19928;-73
2022/06/03 12:52:27;;;;;;;;;;;29.00;99.90;;;;;;5077509;28;20373;-73
2022/06/03 12:55:02;;;;;;;;;;;28.80;99.90;;;;;;5093209;28;19958;-73
2022/06/03 12:57:41;;;;;;;;;;;28.80;99.90;;;;;;5080615;28;19931;-73
2022/06/03 13:00:18;;;;;;;;;;;28.90;99.90;;;;;;5082629;28;19955;-73
2022/06/03 13:02:52;;;;;;;;;;;28.80;99.90;;;;;;5089306;28;20864;-73
2022/06/03 13:05:33;;;;;;;;;;;28.70;99.90;;;;;;5095875;28;20552;-73
2022/06/03 13:08:07;;;;;;;;;;;28.50;99.90;;;;;;5077801;28;19924;-74
2022/06/03 13:10:57;;;;;;;;;;;28.30;99.90;;;;;;5092252;28;20402;-73
2022/06/03 13:13:28;;;;;;;;;;;28.20;99.90;;;;;;5090515;28;19928;-73
2022/06/03 13:16:19;;;;;;;;;;;28.20;99.90;;;;;;5082554;28;19947;-74
2022/06/03 13:18:55;;;;;;;;;;;28.10;99.90;;;;;;5071284;28;19932;-73
2022/06/03 13:21:46;;;;;;;;;;;28.10;99.90;;;;;;5084088;28;19924;-73
2022/06/03 13:24:26;;;;;;;;;;;28.20;99.90;;;;;;5089300;28;19924;-73
2022/06/03 13:27:11;;;;;;;;;;;28.30;99.90;;;;;;5074548;28;19954;-74
2022/06/03 13:29:45;;;;;;;;;;;28.40;99.90;;;;;;5091979;28;19935;-74
2022/06/03 13:32:19;;;;;;;;;;;28.30;99.90;;;;;;5056742;28;19934;-74
2022/06/03 13:35:04;;;;;;;;;;;28.30;99.90;;;;;;5067979;28;20484;-74
2022/06/03 13:37:31;;;;;;;;;;;28.30;99.90;;;;;;5089032;28;19931;-73
2022/06/03 13:40:06;;;;;;;;;;;28.20;99.90;;;;;;5056362;28;19952;-74
2022/06/03 13:42:58;;;;;;;;;;;28.10;99.90;;;;;;5071237;28;19931;-73
2022/06/03 13:45:29;;;;;;;;;;;27.90;99.40;;;;;;5089372;28;20338;-73
2022/06/03 13:48:01;;;;;;;;;;;27.70;99.90;;;;;;5071476;28;19928;-73
2022/06/03 13:50:35;;;;;;;;;;;27.60;99.90;;;;;;5092042;28;19931;-73
2022/06/03 13:53:09;;;;;;;;;;;27.40;99.90;;;;;;5087626;28;19966;-73
2022/06/03 13:55:48;;;;;;;;;;;27.40;99.90;;;;;;5071210;28;19924;-73
2022/06/03 13:58:27;;;;;;;;;;;27.30;99.90;;;;;;5071359;28;19928;-73
2022/06/03 14:01:01;;;;;;;;;;;27.20;99.90;;;;;;5092368;28;19967;-73
2022/06/03 14:03:37;;;;;;;;;;;27.10;99.90;;;;;;5108078;27;20018;-73
2022/06/03 14:06:20;;;;;;;;;;;27.10;99.90;;;;;;5071486;28;19968;-73
2022/06/03 14:08:55;;;;;;;;;;;26.90;99.90;;;;;;5068574;28;19928;-73
2022/06/03 14:11:27;;;;;;;;;;;26.80;99.90;;;;;;5073435;28;19925;-73
2022/06/03 14:14:02;;;;;;;;;;;26.70;99.90;;;;;;5080006;28;19985;-73
2022/06/03 14:16:53;;;;;;;;;;;26.60;99.90;;;;;;5071281;28;20031;-73
2022/06/03 14:19:38;;;;;;;;;;;26.50;99.90;;;;;;5099038;27;19932;-73
2022/06/03 14:22:13;;;;;;;;;;;26.40;99.90;;;;;;5070269;28;20023;-73
2022/06/03 14:24:44;;;;;;;;;;;26.20;99.90;;;;;;5086235;28;19923;-73
2022/06/03 14:27:24;;;;;;;;;;;26.10;99.90;;;;;;5104713;27;20376;-73
2022/06/03 14:30:06;;;;;;;;;;;26.00;99.90;;;;;;5088060;28;19928;-73
2022/06/03 14:32:40;;;;;;;;;;;25.80;99.90;;;;;;5084563;28;20411;-73
2022/06/03 14:35:17;;;;;;;;;;;25.60;99.90;;;;;;5086867;28;19935;-73
2022/06/03 14:37:55;;;;;;;;;;;25.40;99.90;;;;;;5090964;28;19925;-74
2022/06/03 14:40:29;;;;;;;;;;;25.30;99.90;;;;;;5083925;28;20372;-73
2022/06/03 14:43:02;;;;;;;;;;;25.20;99.90;;;;;;5067553;28;21013;-73
2022/06/03 14:45:41;;;;;;;;;;;25.20;99.90;;;;;;5062111;28;19928;-74
2022/06/03 14:48:14;;;;;;;;;;;25.10;99.90;;;;;;5105375;27;20415;-73
2022/06/03 14:50:44;;;;;;;;;;;25.10;99.90;;;;;;5092399;28;19928;-73
2022/06/03 14:53:16;;;;;;;;;;;25.00;99.90;;;;;;5060815;28;19936;-73
2022/06/03 14:56:11;;;;;;;;;;;24.90;99.90;;;;;;5072213;28;19925;-73
2022/06/03 14:58:45;;;;;;;;;;;24.80;99.90;;;;;;5026629;28;19932;-73
2022/06/03 15:01:25;;;;;;;;;;;24.60;99.90;;;;;;5065169;28;19924;-73
2022/06/03 15:04:00;;;;;;;;;;;24.50;99.90;;;;;;5065447;28;20384;-73
2022/06/03 15:06:37;;;;;;;;;;;24.40;99.90;;;;;;5082470;28;19924;-73
2022/06/03 15:09:07;;;;;;;;;;;24.30;99.90;;;;;;5052312;28;20438;-73
2022/06/03 15:11:42;;;;;;;;;;;24.20;99.90;;;;;;5072080;28;19928;-73
2022/06/03 15:14:11;;;;;;;;;;;24.20;99.90;;;;;;5073498;28;20412;-73
2022/06/03 15:16:54;;;;;;;;;;;24.20;99.90;;;;;;5076964;28;19938;-75
2022/06/03 15:19:44;;;;;;;;;;;24.20;99.90;;;;;;5077074;28;20534;-74
2022/06/03 15:22:31;;;;;;;;;;;24.10;99.90;;;;;;5077334;28;19939;-74
2022/06/03 15:25:05;;;;;;;;;;;24.00;99.90;;;;;;5077643;28;19928;-74
2022/06/03 15:27:37;;;;;;;;;;;23.90;99.90;;;;;;5078160;28;19935;-74
2022/06/03 15:30:11;;;;;;;;;;;23.80;99.90;;;;;;5089255;28;19930;-74
2022/06/03 15:32:43;;;;;;;;;;;23.70;99.90;;;;;;5073101;28;20002;-74
2022/06/03 15:35:29;;;;;;;;;;;23.70;99.90;;;;;;5081103;28;19933;-73
2022/06/03 15:38:13;;;;;;;;;;;23.60;99.90;;;;;;5063321;28;20380;-73
2022/06/03 15:40:54;;;;;;;;;;;23.50;99.90;;;;;;5078857;28;19925;-73
2022/06/03 15:43:27;;;;;;;;;;;23.40;99.90;;;;;;5085140;28;20403;-73
2022/06/03 15:45:58;;;;;;;;;;;23.40;99.90;;;;;;5055850;28;20030;-73
2022/06/03 15:48:30;;;;;;;;;;;23.30;99.90;;;;;;5059164;28;19967;-73
2022/06/03 15:51:06;;;;;;;;;;;23.20;99.90;;;;;;5085194;28;20270;-73